CYMM

Fort McMurray Airport

Fort McMurray, Alberta, Canada
METAR CYMM 250600Z AUTO 19007KT 9SM CLR 17/07 A2978 RMK SLP088 DENSITY ALT 1900FT
Observed Flight Rules
Jun-25 @ 06:00 UTC (22 minutes ago) Visual Flight Rules
Wind Visibility Clouds
190° at 7 knots 9 miles
  • Clear skies
Temperatures Readings
Current 17°C / 63°F
Dewpoint 7°C / 45°F
Humidity 52%
Altimeter 29.78" Hg
Pressure 1008.8 hPa
Elevation 369
METAR CYMM 250600Z AUTO 19007KT 9SM CLR 17/07 A2978 RMK SLP088 DENSITY ALT 1900FT
Observed Flight Rules
Jun-25 @ 06:00 UTC
(22 minutes ago)
VFR
Wind Visibility
190° at 7 knots 9 miles
Clouds
  • Clear skies
Temperature Dewpoint
17°C / 63°F 7°C / 45°F
Humidity Altimeter Pressure
52% 29.78" Hg 1008.8 hPa